Hampden, Maine
Current Conditions -  °F | °C
As of 10:09 AM on Thursday 18 Dec 2014 (Local Time) from KBGR Reporting Station
Light Snow Light Snow  
Wind Chill: 22°   Ceiling: 1600
Heat Index: 32°   Visibility: 1mi
Dew Point: 30°   Wind: 15mph
Humidity: 92%   Direction: 320°NW
Pressure: 29.63"   Gusts: NA
Location:  44.75°N, 68.84°W
Report Text: KBGR 181509Z 32013KT 1SM R15/5000V6000FT -SN BR SCT010 BKN016 OVC036 00/M01 A2963 RMK AO2 TWR VIS 1 3/4 P0000 T00001011
Loading
Personal Weather Stations






























Interactive Weather Map New forecast layout! Learn more

10-Day Weather Forecast

Advertisements
Track Severe Weather on mobile